sensor_id;sensor_type;location;lat;lon;timestamp;P1;durP1;ratioP1;P2;durP2;ratioP2
63050;SDS011;49136;47.416;19.402;2023-07-20T00:01:28;422.98;;;389.40;;
63050;SDS011;49136;47.416;19.402;2023-07-20T00:03:54;444.17;;;409.38;;
63050;SDS011;49136;47.416;19.402;2023-07-20T00:06:22;405.60;;;373.58;;
63050;SDS011;49136;47.416;19.402;2023-07-20T00:08:50;412.63;;;379.63;;
63050;SDS011;49136;47.416;19.402;2023-07-20T00:11:16;400.55;;;367.27;;
63050;SDS011;49136;47.416;19.402;2023-07-20T00:13:42;401.10;;;369.20;;
63050;SDS011;49136;47.416;19.402;2023-07-20T00:16:07;429.60;;;396.08;;
63050;SDS011;49136;47.416;19.402;2023-07-20T00:18:33;446.65;;;412.23;;
63050;SDS011;49136;47.416;19.402;2023-07-20T00:20:58;438.15;;;403.77;;
63050;SDS011;49136;47.416;19.402;2023-07-20T00:23:25;431.55;;;396.88;;
63050;SDS011;49136;47.416;19.402;2023-07-20T00:25:51;426.45;;;392.58;;
63050;SDS011;49136;47.416;19.402;2023-07-20T00:28:16;442.10;;;408.48;;
63050;SDS011;49136;47.416;19.402;2023-07-20T00:30:42;417.48;;;385.88;;
63050;SDS011;49136;47.416;19.402;2023-07-20T00:33:10;462.38;;;427.15;;
63050;SDS011;49136;47.416;19.402;2023-07-20T00:35:37;436.92;;;404.13;;
63050;SDS011;49136;47.416;19.402;2023-07-20T00:38:05;461.08;;;426.75;;
63050;SDS011;49136;47.416;19.402;2023-07-20T00:40:37;450.73;;;416.90;;
63050;SDS011;49136;47.416;19.402;2023-07-20T00:43:03;451.58;;;418.35;;
63050;SDS011;49136;47.416;19.402;2023-07-20T00:45:29;452.55;;;419.15;;
63050;SDS011;49136;47.416;19.402;2023-07-20T00:47:54;464.60;;;429.73;;
63050;SDS011;49136;47.416;19.402;2023-07-20T00:50:20;461.65;;;427.85;;
63050;SDS011;49136;47.416;19.402;2023-07-20T00:52:46;464.70;;;429.88;;
63050;SDS011;49136;47.416;19.402;2023-07-20T00:55:11;475.75;;;439.45;;
63050;SDS011;49136;47.416;19.402;2023-07-20T00:57:37;488.05;;;451.00;;
63050;SDS011;49136;47.416;19.402;2023-07-20T01:00:03;467.45;;;431.58;;
63050;SDS011;49136;47.416;19.402;2023-07-20T01:02:28;492.90;;;455.67;;
63050;SDS011;49136;47.416;19.402;2023-07-20T01:04:54;469.98;;;434.40;;
63050;SDS011;49136;47.416;19.402;2023-07-20T01:07:28;470.73;;;434.83;;
63050;SDS011;49136;47.416;19.402;2023-07-20T01:12:51;467.33;;;431.65;;
63050;SDS011;49136;47.416;19.402;2023-07-20T01:15:17;450.70;;;415.90;;
63050;SDS011;49136;47.416;19.402;2023-07-20T01:17:43;460.95;;;424.98;;
63050;SDS011;49136;47.416;19.402;2023-07-20T01:20:10;431.88;;;398.30;;
63050;SDS011;49136;47.416;19.402;2023-07-20T01:23:27;437.90;;;404.58;;
63050;SDS011;49136;47.416;19.402;2023-07-20T01:25:58;409.92;;;378.15;;
63050;SDS011;49136;47.416;19.402;2023-07-20T01:31:51;393.75;;;364.02;;
63050;SDS011;49136;47.416;19.402;2023-07-20T01:34:18;418.98;;;387.48;;
63050;SDS011;49136;47.416;19.402;2023-07-20T01:36:44;429.90;;;396.80;;
63050;SDS011;49136;47.416;19.402;2023-07-20T01:39:11;412.90;;;380.58;;
63050;SDS011;49136;47.416;19.402;2023-07-20T01:41:36;436.02;;;402.20;;
63050;SDS011;49136;47.416;19.402;2023-07-20T01:44:03;433.60;;;400.88;;
63050;SDS011;49136;47.416;19.402;2023-07-20T01:46:29;420.40;;;388.60;;
63050;SDS011;49136;47.416;19.402;2023-07-20T01:48:54;449.00;;;414.42;;
63050;SDS011;49136;47.416;19.402;2023-07-20T01:51:20;424.35;;;392.60;;
63050;SDS011;49136;47.416;19.402;2023-07-20T01:53:45;424.80;;;392.10;;
63050;SDS011;49136;47.416;19.402;2023-07-20T01:56:11;424.42;;;392.23;;
63050;SDS011;49136;47.416;19.402;2023-07-20T01:58:37;438.63;;;405.80;;
63050;SDS011;49136;47.416;19.402;2023-07-20T02:01:03;425.35;;;391.90;;
63050;SDS011;49136;47.416;19.402;2023-07-20T02:03:28;420.88;;;388.15;;
63050;SDS011;49136;47.416;19.402;2023-07-20T02:05:54;432.17;;;399.88;;
63050;SDS011;49136;47.416;19.402;2023-07-20T02:08:19;425.92;;;393.48;;
63050;SDS011;49136;47.416;19.402;2023-07-20T02:10:47;437.48;;;404.55;;
63050;SDS011;49136;47.416;19.402;2023-07-20T02:13:13;425.95;;;393.08;;
63050;SDS011;49136;47.416;19.402;2023-07-20T02:15:38;410.45;;;379.55;;
63050;SDS011;49136;47.416;19.402;2023-07-20T02:18:04;439.60;;;406.38;;
63050;SDS011;49136;47.416;19.402;2023-07-20T02:20:29;455.25;;;420.67;;
63050;SDS011;49136;47.416;19.402;2023-07-20T02:22:54;453.20;;;419.30;;
63050;SDS011;49136;47.416;19.402;2023-07-20T02:25:21;434.85;;;403.02;;
63050;SDS011;49136;47.416;19.402;2023-07-20T02:27:46;460.67;;;425.67;;
63050;SDS011;49136;47.416;19.402;2023-07-20T02:30:12;457.08;;;422.65;;
63050;SDS011;49136;47.416;19.402;2023-07-20T02:32:38;444.73;;;411.23;;
63050;SDS011;49136;47.416;19.402;2023-07-20T02:35:04;471.75;;;435.95;;
63050;SDS011;49136;47.416;19.402;2023-07-20T02:37:30;456.27;;;420.88;;
63050;SDS011;49136;47.416;19.402;2023-07-20T02:39:55;455.02;;;421.25;;
63050;SDS011;49136;47.416;19.402;2023-07-20T02:42:21;452.75;;;418.25;;
63050;SDS011;49136;47.416;19.402;2023-07-20T02:44:48;463.38;;;427.85;;
63050;SDS011;49136;47.416;19.402;2023-07-20T02:47:13;458.35;;;423.50;;
63050;SDS011;49136;47.416;19.402;2023-07-20T02:49:39;453.52;;;419.13;;
63050;SDS011;49136;47.416;19.402;2023-07-20T02:52:04;458.95;;;424.23;;
63050;SDS011;49136;47.416;19.402;2023-07-20T02:54:30;473.98;;;437.73;;
63050;SDS011;49136;47.416;19.402;2023-07-20T02:56:55;456.10;;;420.60;;
63050;SDS011;49136;47.416;19.402;2023-07-20T02:59:21;422.38;;;390.38;;
63050;SDS011;49136;47.416;19.402;2023-07-20T03:01:46;446.73;;;413.13;;
63050;SDS011;49136;47.416;19.402;2023-07-20T03:04:12;439.60;;;406.10;;
63050;SDS011;49136;47.416;19.402;2023-07-20T03:06:37;466.60;;;431.05;;
63050;SDS011;49136;47.416;19.402;2023-07-20T03:09:03;475.02;;;438.83;;
63050;SDS011;49136;47.416;19.402;2023-07-20T03:11:29;474.08;;;437.48;;
63050;SDS011;49136;47.416;19.402;2023-07-20T03:13:54;471.15;;;435.40;;
63050;SDS011;49136;47.416;19.402;2023-07-20T03:16:21;459.63;;;425.17;;
63050;SDS011;49136;47.416;19.402;2023-07-20T03:18:50;461.33;;;426.77;;
63050;SDS011;49136;47.416;19.402;2023-07-20T03:21:15;462.33;;;428.00;;
63050;SDS011;49136;47.416;19.402;2023-07-20T03:23:41;445.30;;;410.95;;
63050;SDS011;49136;47.416;19.402;2023-07-20T03:26:07;447.60;;;413.73;;
63050;SDS011;49136;47.416;19.402;2023-07-20T03:28:36;459.80;;;425.65;;
63050;SDS011;49136;47.416;19.402;2023-07-20T03:31:03;393.15;;;363.38;;
63050;SDS011;49136;47.416;19.402;2023-07-20T03:33:29;401.88;;;370.50;;
63050;SDS011;49136;47.416;19.402;2023-07-20T03:35:55;383.90;;;354.45;;
63050;SDS011;49136;47.416;19.402;2023-07-20T03:38:21;396.83;;;365.85;;
63050;SDS011;49136;47.416;19.402;2023-07-20T03:40:50;389.48;;;357.90;;
63050;SDS011;49136;47.416;19.402;2023-07-20T03:43:16;380.30;;;350.30;;
63050;SDS011;49136;47.416;19.402;2023-07-20T03:45:41;390.60;;;360.58;;
63050;SDS011;49136;47.416;19.402;2023-07-20T03:48:07;410.25;;;378.05;;
63050;SDS011;49136;47.416;19.402;2023-07-20T03:50:32;376.42;;;347.25;;
63050;SDS011;49136;47.416;19.402;2023-07-20T03:52:58;394.38;;;364.75;;
63050;SDS011;49136;47.416;19.402;2023-07-20T03:55:24;394.08;;;363.58;;
63050;SDS011;49136;47.416;19.402;2023-07-20T03:57:49;376.15;;;346.80;;
63050;SDS011;49136;47.416;19.402;2023-07-20T04:00:16;380.83;;;351.70;;
63050;SDS011;49136;47.416;19.402;2023-07-20T04:02:42;376.65;;;347.88;;
63050;SDS011;49136;47.416;19.402;2023-07-20T04:05:08;376.73;;;347.70;;
63050;SDS011;49136;47.416;19.402;2023-07-20T04:07:33;374.75;;;346.42;;
63050;SDS011;49136;47.416;19.402;2023-07-20T04:09:58;382.88;;;352.80;;
63050;SDS011;49136;47.416;19.402;2023-07-20T04:12:24;402.45;;;371.48;;
63050;SDS011;49136;47.416;19.402;2023-07-20T04:14:49;399.23;;;367.70;;
63050;SDS011;49136;47.416;19.402;2023-07-20T04:17:15;397.90;;;366.42;;
63050;SDS011;49136;47.416;19.402;2023-07-20T04:19:40;396.25;;;364.48;;
63050;SDS011;49136;47.416;19.402;2023-07-20T04:22:06;405.90;;;373.33;;
63050;SDS011;49136;47.416;19.402;2023-07-20T04:24:32;400.45;;;369.05;;
63050;SDS011;49136;47.416;19.402;2023-07-20T04:26:58;395.85;;;364.77;;
63050;SDS011;49136;47.416;19.402;2023-07-20T04:29:23;386.45;;;356.45;;
63050;SDS011;49136;47.416;19.402;2023-07-20T04:31:49;403.42;;;371.77;;
63050;SDS011;49136;47.416;19.402;2023-07-20T04:34:14;402.15;;;370.80;;
63050;SDS011;49136;47.416;19.402;2023-07-20T04:36:40;490.65;;;452.73;;
63050;SDS011;49136;47.416;19.402;2023-07-20T04:39:05;454.42;;;420.45;;
63050;SDS011;49136;47.416;19.402;2023-07-20T04:41:33;468.88;;;432.38;;
63050;SDS011;49136;47.416;19.402;2023-07-20T04:43:58;464.38;;;429.25;;
63050;SDS011;49136;47.416;19.402;2023-07-20T04:46:24;436.15;;;402.08;;
63050;SDS011;49136;47.416;19.402;2023-07-20T04:48:49;508.83;;;467.75;;
63050;SDS011;49136;47.416;19.402;2023-07-20T04:51:14;516.50;;;476.05;;
63050;SDS011;49136;47.416;19.402;2023-07-20T04:53:42;518.97;;;479.88;;
63050;SDS011;49136;47.416;19.402;2023-07-20T04:56:07;489.05;;;450.15;;
63050;SDS011;49136;47.416;19.402;2023-07-20T04:58:33;470.42;;;432.52;;
63050;SDS011;49136;47.416;19.402;2023-07-20T05:00:58;507.33;;;467.08;;
63050;SDS011;49136;47.416;19.402;2023-07-20T05:03:24;507.85;;;465.83;;
63050;SDS011;49136;47.416;19.402;2023-07-20T05:05:49;501.67;;;460.48;;
63050;SDS011;49136;47.416;19.402;2023-07-20T05:08:15;405.33;;;372.27;;
63050;SDS011;49136;47.416;19.402;2023-07-20T05:10:41;409.60;;;374.50;;
63050;SDS011;49136;47.416;19.402;2023-07-20T05:13:06;476.63;;;439.75;;
63050;SDS011;49136;47.416;19.402;2023-07-20T05:15:33;436.10;;;401.77;;
63050;SDS011;49136;47.416;19.402;2023-07-20T05:17:59;469.55;;;431.05;;
63050;SDS011;49136;47.416;19.402;2023-07-20T05:20:26;483.67;;;444.27;;
63050;SDS011;49136;47.416;19.402;2023-07-20T05:22:52;443.20;;;409.40;;
63050;SDS011;49136;47.416;19.402;2023-07-20T05:25:18;442.10;;;407.52;;
63050;SDS011;49136;47.416;19.402;2023-07-20T05:27:44;452.05;;;416.65;;
63050;SDS011;49136;47.416;19.402;2023-07-20T05:30:10;435.15;;;402.13;;
63050;SDS011;49136;47.416;19.402;2023-07-20T05:32:36;468.38;;;431.90;;
63050;SDS011;49136;47.416;19.402;2023-07-20T05:35:02;442.10;;;405.80;;
63050;SDS011;49136;47.416;19.402;2023-07-20T05:37:27;455.75;;;417.52;;
63050;SDS011;49136;47.416;19.402;2023-07-20T05:39:53;472.02;;;431.95;;
63050;SDS011;49136;47.416;19.402;2023-07-20T05:42:18;449.92;;;412.83;;
63050;SDS011;49136;47.416;19.402;2023-07-20T05:44:44;504.88;;;461.38;;
63050;SDS011;49136;47.416;19.402;2023-07-20T05:47:09;471.08;;;431.08;;
63050;SDS011;49136;47.416;19.402;2023-07-20T05:49:35;552.33;;;503.75;;
63050;SDS011;49136;47.416;19.402;2023-07-20T05:52:01;502.17;;;459.45;;
63050;SDS011;49136;47.416;19.402;2023-07-20T05:54:26;481.15;;;440.92;;
63050;SDS011;49136;47.416;19.402;2023-07-20T05:56:52;469.70;;;430.77;;
63050;SDS011;49136;47.416;19.402;2023-07-20T05:59:18;523.13;;;477.48;;
63050;SDS011;49136;47.416;19.402;2023-07-20T06:01:44;476.65;;;438.15;;
63050;SDS011;49136;47.416;19.402;2023-07-20T06:04:12;430.77;;;397.38;;
63050;SDS011;49136;47.416;19.402;2023-07-20T06:06:37;421.65;;;388.60;;
63050;SDS011;49136;47.416;19.402;2023-07-20T06:09:02;411.55;;;380.40;;
63050;SDS011;49136;47.416;19.402;2023-07-20T06:11:29;480.10;;;441.77;;
63050;SDS011;49136;47.416;19.402;2023-07-20T06:13:55;398.80;;;367.48;;
63050;SDS011;49136;47.416;19.402;2023-07-20T06:16:21;402.75;;;372.23;;
63050;SDS011;49136;47.416;19.402;2023-07-20T06:18:47;378.17;;;350.17;;
63050;SDS011;49136;47.416;19.402;2023-07-20T06:21:12;391.83;;;363.25;;
63050;SDS011;49136;47.416;19.402;2023-07-20T06:23:38;404.45;;;372.92;;
63050;SDS011;49136;47.416;19.402;2023-07-20T06:26:03;384.13;;;354.63;;
63050;SDS011;49136;47.416;19.402;2023-07-20T06:28:30;369.05;;;342.27;;
63050;SDS011;49136;47.416;19.402;2023-07-20T06:31:02;443.17;;;406.58;;
63050;SDS011;49136;47.416;19.402;2023-07-20T06:33:28;401.27;;;369.30;;
63050;SDS011;49136;47.416;19.402;2023-07-20T06:35:54;396.58;;;365.88;;
63050;SDS011;49136;47.416;19.402;2023-07-20T06:38:19;434.17;;;400.23;;
63050;SDS011;49136;47.416;19.402;2023-07-20T06:40:46;486.70;;;447.83;;
63050;SDS011;49136;47.416;19.402;2023-07-20T06:43:11;505.17;;;465.77;;
63050;SDS011;49136;47.416;19.402;2023-07-20T06:45:37;454.27;;;419.50;;
63050;SDS011;49136;47.416;19.402;2023-07-20T06:48:03;567.50;;;521.55;;
63050;SDS011;49136;47.416;19.402;2023-07-20T06:50:28;524.47;;;484.98;;
63050;SDS011;49136;47.416;19.402;2023-07-20T06:52:54;555.80;;;513.20;;
63050;SDS011;49136;47.416;19.402;2023-07-20T06:55:20;564.40;;;518.83;;
63050;SDS011;49136;47.416;19.402;2023-07-20T06:57:46;623.28;;;572.38;;
63050;SDS011;49136;47.416;19.402;2023-07-20T07:00:11;591.20;;;542.42;;
63050;SDS011;49136;47.416;19.402;2023-07-20T07:02:38;593.47;;;544.70;;
63050;SDS011;49136;47.416;19.402;2023-07-20T07:05:04;604.95;;;557.70;;
63050;SDS011;49136;47.416;19.402;2023-07-20T07:07:31;593.17;;;545.05;;
63050;SDS011;49136;47.416;19.402;2023-07-20T07:09:57;653.13;;;599.42;;
63050;SDS011;49136;47.416;19.402;2023-07-20T07:12:25;598.03;;;549.88;;
63050;SDS011;49136;47.416;19.402;2023-07-20T07:14:50;685.15;;;627.55;;
63050;SDS011;49136;47.416;19.402;2023-07-20T07:17:16;684.63;;;626.38;;
63050;SDS011;49136;47.416;19.402;2023-07-20T07:19:41;737.88;;;668.25;;
63050;SDS011;49136;47.416;19.402;2023-07-20T07:22:07;699.35;;;640.65;;
63050;SDS011;49136;47.416;19.402;2023-07-20T07:24:35;705.80;;;646.33;;
63050;SDS011;49136;47.416;19.402;2023-07-20T07:27:01;686.72;;;628.17;;
63050;SDS011;49136;47.416;19.402;2023-07-20T07:29:26;710.00;;;647.75;;
63050;SDS011;49136;47.416;19.402;2023-07-20T07:31:52;720.17;;;659.45;;
63050;SDS011;49136;47.416;19.402;2023-07-20T07:34:17;717.22;;;657.42;;
63050;SDS011;49136;47.416;19.402;2023-07-20T07:36:43;673.75;;;617.25;;
63050;SDS011;49136;47.416;19.402;2023-07-20T07:39:09;715.03;;;655.35;;
63050;SDS011;49136;47.416;19.402;2023-07-20T07:41:36;755.60;;;685.60;;
63050;SDS011;49136;47.416;19.402;2023-07-20T07:44:01;705.53;;;645.45;;
63050;SDS011;49136;47.416;19.402;2023-07-20T07:46:27;652.95;;;595.72;;
63050;SDS011;49136;47.416;19.402;2023-07-20T07:48:52;664.10;;;605.65;;
63050;SDS011;49136;47.416;19.402;2023-07-20T07:51:18;696.22;;;638.00;;
63050;SDS011;49136;47.416;19.402;2023-07-20T07:53:45;565.28;;;516.13;;
63050;SDS011;49136;47.416;19.402;2023-07-20T07:56:11;592.50;;;542.63;;
63050;SDS011;49136;47.416;19.402;2023-07-20T07:58:36;613.20;;;560.53;;
63050;SDS011;49136;47.416;19.402;2023-07-20T08:01:02;650.20;;;594.70;;
63050;SDS011;49136;47.416;19.402;2023-07-20T08:03:28;655.42;;;598.00;;
63050;SDS011;49136;47.416;19.402;2023-07-20T08:05:54;627.00;;;569.03;;
63050;SDS011;49136;47.416;19.402;2023-07-20T08:08:25;545.35;;;500.65;;
63050;SDS011;49136;47.416;19.402;2023-07-20T08:10:52;580.70;;;530.10;;
63050;SDS011;49136;47.416;19.402;2023-07-20T08:13:19;539.85;;;494.65;;
63050;SDS011;49136;47.416;19.402;2023-07-20T08:15:45;522.58;;;481.67;;
63050;SDS011;49136;47.416;19.402;2023-07-20T08:18:14;621.42;;;566.42;;
63050;SDS011;49136;47.416;19.402;2023-07-20T08:20:43;562.90;;;514.15;;
63050;SDS011;49136;47.416;19.402;2023-07-20T08:23:09;558.75;;;512.30;;
63050;SDS011;49136;47.416;19.402;2023-07-20T08:25:36;585.50;;;530.35;;
63050;SDS011;49136;47.416;19.402;2023-07-20T08:28:04;509.35;;;469.08;;
63050;SDS011;49136;47.416;19.402;2023-07-20T08:30:39;561.78;;;517.55;;
63050;SDS011;49136;47.416;19.402;2023-07-20T08:33:13;536.03;;;491.17;;
63050;SDS011;49136;47.416;19.402;2023-07-20T08:35:39;537.80;;;494.60;;
63050;SDS011;49136;47.416;19.402;2023-07-20T08:38:04;569.50;;;525.17;;
63050;SDS011;49136;47.416;19.402;2023-07-20T08:40:33;577.35;;;527.50;;
63050;SDS011;49136;47.416;19.402;2023-07-20T08:43:04;503.08;;;462.45;;
63050;SDS011;49136;47.416;19.402;2023-07-20T08:45:29;594.53;;;544.60;;
63050;SDS011;49136;47.416;19.402;2023-07-20T08:47:58;522.55;;;480.75;;
63050;SDS011;49136;47.416;19.402;2023-07-20T08:50:26;545.13;;;498.45;;
63050;SDS011;49136;47.416;19.402;2023-07-20T08:52:53;380.98;;;350.27;;
63050;SDS011;49136;47.416;19.402;2023-07-20T08:55:21;420.52;;;387.52;;
63050;SDS011;49136;47.416;19.402;2023-07-20T08:57:49;433.45;;;400.58;;
63050;SDS011;49136;47.416;19.402;2023-07-20T09:00:16;581.17;;;527.58;;
63050;SDS011;49136;47.416;19.402;2023-07-20T09:02:43;467.80;;;429.38;;
63050;SDS011;49136;47.416;19.402;2023-07-20T09:05:10;589.30;;;537.55;;
63050;SDS011;49136;47.416;19.402;2023-07-20T09:07:36;420.15;;;387.02;;
63050;SDS011;49136;47.416;19.402;2023-07-20T09:10:02;520.15;;;473.10;;
63050;SDS011;49136;47.416;19.402;2023-07-20T09:12:31;547.30;;;501.92;;
63050;SDS011;49136;47.416;19.402;2023-07-20T09:15:00;501.55;;;460.60;;
63050;SDS011;49136;47.416;19.402;2023-07-20T09:17:26;560.72;;;512.25;;
63050;SDS011;49136;47.416;19.402;2023-07-20T09:19:51;468.27;;;432.55;;
63050;SDS011;49136;47.416;19.402;2023-07-20T09:22:17;519.75;;;479.38;;
63050;SDS011;49136;47.416;19.402;2023-07-20T09:24:43;487.05;;;450.08;;
63050;SDS011;49136;47.416;19.402;2023-07-20T09:27:09;516.03;;;473.85;;
63050;SDS011;49136;47.416;19.402;2023-07-20T09:29:46;593.83;;;540.50;;
63050;SDS011;49136;47.416;19.402;2023-07-20T09:32:19;571.33;;;518.95;;
63050;SDS011;49136;47.416;19.402;2023-07-20T09:34:45;513.25;;;474.10;;
63050;SDS011;49136;47.416;19.402;2023-07-20T09:37:11;497.83;;;459.98;;
63050;SDS011;49136;47.416;19.402;2023-07-20T09:39:44;452.10;;;418.38;;
63050;SDS011;49136;47.416;19.402;2023-07-20T09:42:11;517.00;;;475.80;;
63050;SDS011;49136;47.416;19.402;2023-07-20T09:44:38;466.27;;;430.70;;
63050;SDS011;49136;47.416;19.402;2023-07-20T09:47:04;428.67;;;396.45;;
63050;SDS011;49136;47.416;19.402;2023-07-20T09:49:30;426.23;;;395.35;;
63050;SDS011;49136;47.416;19.402;2023-07-20T09:51:57;467.00;;;429.55;;
63050;SDS011;49136;47.416;19.402;2023-07-20T09:54:26;423.52;;;392.52;;
63050;SDS011;49136;47.416;19.402;2023-07-20T09:56:52;418.63;;;387.77;;
63050;SDS011;49136;47.416;19.402;2023-07-20T09:59:18;463.15;;;428.17;;
63050;SDS011;49136;47.416;19.402;2023-07-20T10:01:43;485.63;;;444.55;;
63050;SDS011;49136;47.416;19.402;2023-07-20T10:04:11;500.25;;;461.98;;
63050;SDS011;49136;47.416;19.402;2023-07-20T10:06:39;439.42;;;407.30;;
63050;SDS011;49136;47.416;19.402;2023-07-20T10:09:07;435.17;;;402.38;;
63050;SDS011;49136;47.416;19.402;2023-07-20T10:11:35;516.25;;;473.60;;
63050;SDS011;49136;47.416;19.402;2023-07-20T10:14:04;579.20;;;526.08;;
63050;SDS011;49136;47.416;19.402;2023-07-20T10:16:36;479.95;;;442.70;;
63050;SDS011;49136;47.416;19.402;2023-07-20T10:21:51;418.70;;;388.08;;
63050;SDS011;49136;47.416;19.402;2023-07-20T10:24:23;522.20;;;477.80;;
63050;SDS011;49136;47.416;19.402;2023-07-20T10:26:49;394.92;;;368.27;;
63050;SDS011;49136;47.416;19.402;2023-07-20T10:29:15;381.83;;;354.83;;
63050;SDS011;49136;47.416;19.402;2023-07-20T10:31:41;448.52;;;413.75;;
63050;SDS011;49136;47.416;19.402;2023-07-20T10:34:08;510.67;;;468.15;;
63050;SDS011;49136;47.416;19.402;2023-07-20T10:36:33;399.35;;;371.67;;
63050;SDS011;49136;47.416;19.402;2023-07-20T10:39:21;432.90;;;399.90;;
63050;SDS011;49136;47.416;19.402;2023-07-20T10:41:59;410.02;;;378.45;;
63050;SDS011;49136;47.416;19.402;2023-07-20T10:44:26;427.00;;;396.95;;
63050;SDS011;49136;47.416;19.402;2023-07-20T10:46:52;379.27;;;352.98;;
63050;SDS011;49136;47.416;19.402;2023-07-20T10:49:25;506.52;;;465.25;;
63050;SDS011;49136;47.416;19.402;2023-07-20T10:51:58;471.77;;;433.50;;
63050;SDS011;49136;47.416;19.402;2023-07-20T10:56:50;556.88;;;509.15;;
63050;SDS011;49136;47.416;19.402;2023-07-20T10:59:19;437.75;;;405.23;;
63050;SDS011;49136;47.416;19.402;2023-07-20T11:01:48;415.98;;;384.60;;
63050;SDS011;49136;47.416;19.402;2023-07-20T11:04:16;427.20;;;397.75;;
63050;SDS011;49136;47.416;19.402;2023-07-20T11:06:54;700.72;;;631.42;;
63050;SDS011;49136;47.416;19.402;2023-07-20T11:09:21;459.15;;;425.10;;
63050;SDS011;49136;47.416;19.402;2023-07-20T11:11:50;462.50;;;428.87;;
63050;SDS011;49136;47.416;19.402;2023-07-20T11:14:22;487.55;;;451.63;;
63050;SDS011;49136;47.416;19.402;2023-07-20T11:16:49;397.25;;;367.40;;
63050;SDS011;49136;47.416;19.402;2023-07-20T11:19:20;467.48;;;431.80;;
63050;SDS011;49136;47.416;19.402;2023-07-20T11:21:51;462.98;;;428.75;;
63050;SDS011;49136;47.416;19.402;2023-07-20T11:24:20;451.63;;;418.17;;
63050;SDS011;49136;47.416;19.402;2023-07-20T11:26:47;527.53;;;483.95;;
63050;SDS011;49136;47.416;19.402;2023-07-20T11:29:16;525.45;;;482.15;;
63050;SDS011;49136;47.416;19.402;2023-07-20T11:31:44;621.53;;;564.95;;
63050;SDS011;49136;47.416;19.402;2023-07-20T11:34:12;570.60;;;520.25;;
63050;SDS011;49136;47.416;19.402;2023-07-20T11:36:42;723.70;;;656.28;;
63050;SDS011;49136;47.416;19.402;2023-07-20T11:39:12;560.38;;;513.53;;
63050;SDS011;49136;47.416;19.402;2023-07-20T11:41:43;564.33;;;517.65;;
63050;SDS011;49136;47.416;19.402;2023-07-20T11:44:09;523.03;;;478.88;;
63050;SDS011;49136;47.416;19.402;2023-07-20T11:46:42;556.92;;;510.38;;
63050;SDS011;49136;47.416;19.402;2023-07-20T11:49:08;481.55;;;445.73;;
63050;SDS011;49136;47.416;19.402;2023-07-20T11:51:33;626.92;;;564.88;;
63050;SDS011;49136;47.416;19.402;2023-07-20T11:54:00;455.80;;;421.55;;
63050;SDS011;49136;47.416;19.402;2023-07-20T11:56:26;553.03;;;508.02;;
63050;SDS011;49136;47.416;19.402;2023-07-20T11:58:59;547.78;;;505.63;;
63050;SDS011;49136;47.416;19.402;2023-07-20T12:01:27;510.63;;;471.77;;
63050;SDS011;49136;47.416;19.402;2023-07-20T12:04:03;510.38;;;471.85;;
63050;SDS011;49136;47.416;19.402;2023-07-20T12:06:29;439.50;;;407.05;;
63050;SDS011;49136;47.416;19.402;2023-07-20T12:08:56;446.88;;;414.08;;
63050;SDS011;49136;47.416;19.402;2023-07-20T12:11:57;460.60;;;426.45;;
63050;SDS011;49136;47.416;19.402;2023-07-20T12:14:16;415.52;;;385.83;;
63050;SDS011;49136;47.416;19.402;2023-07-20T12:16:41;529.33;;;486.48;;
63050;SDS011;49136;47.416;19.402;2023-07-20T12:19:08;457.23;;;423.17;;
63050;SDS011;49136;47.416;19.402;2023-07-20T12:21:35;561.58;;;513.00;;
63050;SDS011;49136;47.416;19.402;2023-07-20T12:24:03;483.13;;;446.20;;
63050;SDS011;49136;47.416;19.402;2023-07-20T12:26:30;464.35;;;428.90;;
63050;SDS011;49136;47.416;19.402;2023-07-20T12:28:56;443.50;;;409.85;;
63050;SDS011;49136;47.416;19.402;2023-07-20T12:31:23;489.67;;;453.65;;
63050;SDS011;49136;47.416;19.402;2023-07-20T12:33:52;548.28;;;501.88;;
63050;SDS011;49136;47.416;19.402;2023-07-20T12:36:20;498.25;;;457.08;;
63050;SDS011;49136;47.416;19.402;2023-07-20T12:38:46;551.53;;;502.92;;
63050;SDS011;49136;47.416;19.402;2023-07-20T12:41:14;640.05;;;581.13;;
63050;SDS011;49136;47.416;19.402;2023-07-20T12:43:46;548.03;;;499.17;;
63050;SDS011;49136;47.416;19.402;2023-07-20T12:46:12;569.10;;;517.58;;
63050;SDS011;49136;47.416;19.402;2023-07-20T12:48:38;705.28;;;640.40;;
63050;SDS011;49136;47.416;19.402;2023-07-20T12:51:06;537.67;;;489.33;;
63050;SDS011;49136;47.416;19.402;2023-07-20T12:53:32;544.25;;;493.15;;
63050;SDS011;49136;47.416;19.402;2023-07-20T12:56:01;548.40;;;502.02;;
63050;SDS011;49136;47.416;19.402;2023-07-20T12:58:27;676.75;;;612.28;;
63050;SDS011;49136;47.416;19.402;2023-07-20T13:00:52;859.58;;;743.75;;
63050;SDS011;49136;47.416;19.402;2023-07-20T13:03:18;763.47;;;686.13;;
63050;SDS011;49136;47.416;19.402;2023-07-20T13:05:44;599.03;;;542.92;;
63050;SDS011;49136;47.416;19.402;2023-07-20T13:08:10;609.40;;;551.88;;
63050;SDS011;49136;47.416;19.402;2023-07-20T13:10:36;960.60;;;745.80;;
63050;SDS011;49136;47.416;19.402;2023-07-20T13:13:03;652.17;;;588.67;;
63050;SDS011;49136;47.416;19.402;2023-07-20T13:15:29;540.92;;;491.55;;
63050;SDS011;49136;47.416;19.402;2023-07-20T13:17:57;546.42;;;498.27;;
63050;SDS011;49136;47.416;19.402;2023-07-20T13:20:22;422.30;;;384.38;;
63050;SDS011;49136;47.416;19.402;2023-07-20T13:22:49;537.35;;;491.80;;
63050;SDS011;49136;47.416;19.402;2023-07-20T13:25:15;509.13;;;469.20;;
63050;SDS011;49136;47.416;19.402;2023-07-20T13:27:41;510.75;;;470.70;;
63050;SDS011;49136;47.416;19.402;2023-07-20T13:30:06;525.40;;;482.30;;
63050;SDS011;49136;47.416;19.402;2023-07-20T13:32:34;515.42;;;468.38;;
63050;SDS011;49136;47.416;19.402;2023-07-20T13:35:00;574.75;;;524.88;;
63050;SDS011;49136;47.416;19.402;2023-07-20T13:37:26;577.50;;;523.05;;
63050;SDS011;49136;47.416;19.402;2023-07-20T13:39:52;498.55;;;458.63;;
63050;SDS011;49136;47.416;19.402;2023-07-20T13:42:17;633.45;;;574.58;;
63050;SDS011;49136;47.416;19.402;2023-07-20T13:44:43;558.97;;;509.33;;
63050;SDS011;49136;47.416;19.402;2023-07-20T13:47:08;505.08;;;462.48;;
63050;SDS011;49136;47.416;19.402;2023-07-20T13:49:34;509.75;;;470.00;;
63050;SDS011;49136;47.416;19.402;2023-07-20T13:51:59;525.88;;;481.70;;
63050;SDS011;49136;47.416;19.402;2023-07-20T13:54:25;491.95;;;452.17;;